Time;durP1;ratioP1;P1;durP2;ratioP2;P2;SDS_P1;SDS_P2;PMS_P1;PMS_P2;Temp;Humidity;BMP_temperature;BMP_pressure;BME280_temperature;BME280_humidity;BME280_pressure;Samples;Min_cycle;Max_cycle;Signal;HPM_P1;HPM_P2
2022/05/30 00:00:33;;;;;;;7.80;2.60;;;7.20;99.90;;;;;;5009650;28;20034;-81
2022/05/30 00:02:59;;;;;;;10.20;2.70;;;7.20;99.90;;;;;;5010010;28;20046;-81
2022/05/30 00:05:25;;;;;;;9.35;3.00;;;7.20;99.90;;;;;;4987167;28;20408;-81
2022/05/30 00:07:51;;;;;;;9.00;2.92;;;7.20;99.90;;;;;;5010232;28;20033;-81
2022/05/30 00:10:19;;;;;;;8.15;2.88;;;7.20;99.90;;;;;;4997193;28;20039;-81
2022/05/30 00:12:46;;;;;;;7.97;3.05;;;7.20;99.90;;;;;;4995906;28;20085;-81
2022/05/30 00:15:14;;;;;;;13.43;3.40;;;7.30;1.00;;;;;;5001504;28;20041;-82
2022/05/30 00:17:39;;;;;;;10.57;3.25;;;7.20;99.90;;;;;;4983175;28;20084;-82
2022/05/30 00:20:06;;;;;;;7.78;2.90;;;7.20;99.90;;;;;;4995749;28;20066;-81
2022/05/30 00:22:32;;;;;;;9.25;3.03;;;7.20;99.90;;;;;;4977487;28;20133;-81
2022/05/30 00:24:58;;;;;;;9.48;3.17;;;7.20;99.90;;;;;;5007534;28;20041;-81
2022/05/30 00:27:24;;;;;;;7.07;2.95;;;7.20;99.90;;;;;;4973683;28;20048;-81
2022/05/30 00:29:52;;;;;;;9.32;2.75;;;7.10;99.90;;;;;;4990983;28;20140;-81
2022/05/30 00:32:18;;;;;;;6.60;2.78;;;7.00;99.90;;;;;;4975705;28;20038;-81
2022/05/30 00:34:44;;;;;;;5.53;2.60;;;6.90;99.90;;;;;;4980480;28;20056;-81
2022/05/30 00:37:10;;;;;;;8.25;2.88;;;6.90;99.90;;;;;;4993886;28;20042;-81
2022/05/30 00:39:35;;;;;;;7.25;3.45;;;6.90;99.90;;;;;;4971522;28;20251;-81
2022/05/30 00:42:24;;;;;;;8.60;3.22;;;6.80;99.90;;;;;;4996294;28;20045;-81
2022/05/30 00:44:50;;;;;;;12.20;3.70;;;6.70;99.90;;;;;;4976924;28;20034;-81
2022/05/30 00:47:18;;;;;;;11.75;3.38;;;6.80;1.00;;;;;;4978254;28;20113;-81
2022/05/30 00:49:47;;;;;;;11.32;3.80;;;6.70;1.00;;;;;;4994669;28;20054;-81
2022/05/30 00:52:26;;;;;;;8.77;3.65;;;6.70;1.00;;;;;;4995153;28;20088;-81
2022/05/30 00:54:55;;;;;;;10.32;4.40;;;6.80;1.00;;;;;;4984279;28;20042;-81
2022/05/30 00:57:23;;;;;;;8.98;4.03;;;6.80;1.00;;;;;;5003537;28;20046;-81
2022/05/30 00:59:59;;;;;;;13.00;4.18;;;6.80;1.00;;;;;;5002316;28;20274;-81
2022/05/30 01:02:29;;;;;;;7.00;3.90;;;6.70;1.00;;;;;;5004243;28;20109;-81
2022/05/30 01:07:41;;;;;;;;;;;6.60;1.00;;;;;;4987419;28;20052;-81
2022/05/30 01:10:10;;;;;;;9.57;3.90;;;6.60;1.00;;;;;;4986243;28;20467;-81
2022/05/30 01:12:49;;;;;;;7.28;3.90;;;6.60;1.00;;;;;;4986547;28;20038;-81
2022/05/30 01:15:17;;;;;;;8.43;3.92;;;6.60;1.00;;;;;;5013777;28;20042;-81
2022/05/30 01:18:08;;;;;;;12.98;4.00;;;6.60;1.00;;;;;;5014350;28;20041;-81
2022/05/30 01:20:56;;;;;;;10.55;4.10;;;6.60;1.00;;;;;;5014983;28;20038;-81
2022/05/30 01:23:31;;;;;;;9.07;3.83;;;6.60;1.00;;;;;;5000856;28;20030;-81
2022/05/30 01:26:47;;;;;;;8.52;3.70;;;6.60;1.00;;;;;;5001727;28;20038;-81
2022/05/30 01:29:32;;;;;;;6.93;3.78;;;6.60;1.00;;;;;;4947637;28;20172;-81
2022/05/30 01:31:58;;;;;;;8.23;3.75;;;6.50;1.00;;;;;;5006485;28;20641;-81
2022/05/30 01:34:26;;;;;;;9.68;3.53;;;6.50;1.00;;;;;;5008039;28;20129;-81
2022/05/30 01:36:52;;;;;;;11.23;4.57;;;6.50;1.00;;;;;;4996056;28;20060;-81
2022/05/30 01:39:18;;;;;;;9.30;4.10;;;6.40;1.00;;;;;;4975908;28;20121;-81
2022/05/30 01:41:44;;;;;;;9.25;3.85;;;6.50;1.00;;;;;;5006924;28;20100;-81
2022/05/30 01:44:10;;;;;;;7.60;4.15;;;6.40;1.00;;;;;;4978599;28;20362;-81
2022/05/30 01:46:36;;;;;;;11.23;4.00;;;6.40;1.00;;;;;;4978244;28;20265;-81
2022/05/30 01:49:05;;;;;;;10.57;4.13;;;6.30;1.00;;;;;;4971113;28;20042;-81
2022/05/30 01:51:30;;;;;;;12.30;4.40;;;6.30;1.00;;;;;;4980506;28;20038;-81
2022/05/30 01:53:56;;;;;;;11.68;4.00;;;6.20;1.00;;;;;;4980002;28;20033;-81
2022/05/30 01:56:22;;;;;;;13.40;4.28;;;6.10;1.00;;;;;;4996545;28;20046;-81
2022/05/30 01:58:48;;;;;;;10.23;4.80;;;6.20;1.00;;;;;;4980388;28;20042;-81
2022/05/30 02:01:26;;;;;;;8.05;4.20;;;6.10;1.00;;;;;;5009135;28;20500;-81
2022/05/30 02:03:53;;;;;;;6.72;4.10;;;6.10;1.00;;;;;;5008518;28;20146;-81
2022/05/30 02:06:26;;;;;;;7.72;3.88;;;6.10;1.00;;;;;;5006943;28;20062;-81
2022/05/30 02:08:51;;;;;;;8.95;3.78;;;6.00;1.00;;;;;;5009144;28;20050;-81
2022/05/30 02:11:18;;;;;;;6.28;3.55;;;6.00;1.00;;;;;;4990127;28;20401;-81
2022/05/30 02:13:44;;;;;;;10.52;4.18;;;5.80;1.00;;;;;;4991613;28;20478;-81
2022/05/30 02:18:57;;;;;;;6.75;3.70;;;5.80;1.00;;;;;;4979906;28;20077;-82
2022/05/30 02:21:23;;;;;;;7.63;3.75;;;5.70;1.00;;;;;;5004508;28;20132;-81
2022/05/30 02:23:49;;;;;;;8.48;3.50;;;5.70;1.00;;;;;;4975425;28;20379;-81
2022/05/30 02:26:14;;;;;;;6.32;3.97;;;5.60;1.00;;;;;;4997922;28;20038;-81
2022/05/30 02:28:40;;;;;;;5.82;3.75;;;5.60;1.00;;;;;;5001851;28;20046;-81
2022/05/30 02:31:06;;;;;;;7.13;4.28;;;5.50;99.90;;;;;;4988536;28;20049;-81
2022/05/30 02:39:00;;;;;;;8.23;3.92;;;5.40;1.00;;;;;;4981843;28;20482;-81
2022/05/30 02:41:26;;;;;;;6.97;4.38;;;5.30;1.00;;;;;;5010740;28;20278;-81
2022/05/30 02:43:52;;;;;;;7.00;3.70;;;5.30;1.00;;;;;;4998795;28;20092;-81
2022/05/30 02:46:17;;;;;;;9.70;3.72;;;5.30;1.00;;;;;;5011268;28;20370;-81
2022/05/30 02:48:43;;;;;;;8.70;4.10;;;5.30;1.00;;;;;;4999743;28;20050;-81
2022/05/30 02:51:10;;;;;;;5.68;3.70;;;5.30;1.00;;;;;;4984532;28;20034;-81
2022/05/30 02:53:36;;;;;;;9.50;3.90;;;5.20;1.00;;;;;;4981356;28;20457;-81
2022/05/30 02:56:02;;;;;;;7.43;3.85;;;5.20;1.00;;;;;;5004351;28;20424;-81
2022/05/30 02:58:28;;;;;;;11.48;4.68;;;5.10;1.00;;;;;;4974856;28;20079;-81
2022/05/30 03:00:54;;;;;;;9.95;4.20;;;5.20;1.00;;;;;;4976283;28;20736;-81
2022/05/30 03:03:20;;;;;;;8.18;4.32;;;5.20;1.00;;;;;;5006557;28;20046;-81
2022/05/30 03:05:46;;;;;;;8.40;4.22;;;5.30;1.00;;;;;;4990155;28;20046;-81
2022/05/30 03:08:11;;;;;;;9.75;4.60;;;5.40;1.00;;;;;;5007766;28;20045;-81
2022/05/30 03:10:37;;;;;;;8.10;4.25;;;5.40;71.30;;;;;;5004683;28;20042;-81
2022/05/30 03:13:05;;;;;;;6.28;4.10;;;5.60;99.90;;;;;;4979822;28;20676;-81
2022/05/30 03:15:30;;;;;;;8.15;4.00;;;5.60;99.90;;;;;;5002428;28;20057;-81
2022/05/30 03:17:56;;;;;;;14.82;5.03;;;5.60;78.50;;;;;;4978413;28;20088;-81
2022/05/30 03:20:22;;;;;;;9.27;3.90;;;5.60;91.00;;;;;;4990106;28;20039;-81
2022/05/30 03:22:48;;;;;;;8.13;4.50;;;5.60;99.90;;;;;;4976482;28;20034;-81
2022/05/30 03:25:15;;;;;;;8.25;4.50;;;5.70;99.90;;;;;;5002465;28;20038;-81
2022/05/30 03:27:44;;;;;;;11.20;4.70;;;5.70;99.90;;;;;;4997087;28;20053;-81
2022/05/30 03:30:11;;;;;;;9.30;5.20;;;5.80;99.90;;;;;;4974670;28;20252;-81
2022/05/30 03:32:37;;;;;;;7.57;4.28;;;5.80;99.90;;;;;;5004925;28;20343;-81
2022/05/30 03:35:04;;;;;;;8.27;4.30;;;5.80;99.90;;;;;;4970393;28;20158;-81
2022/05/30 03:37:30;;;;;;;7.88;4.60;;;5.90;99.90;;;;;;5002492;28;20049;-81
2022/05/30 03:39:56;;;;;;;8.95;4.05;;;5.90;99.90;;;;;;4993968;28;20132;-81
2022/05/30 03:42:24;;;;;;;9.68;4.65;;;6.00;99.90;;;;;;4975505;28;20034;-81
2022/05/30 03:44:50;;;;;;;8.02;4.07;;;6.10;99.90;;;;;;4993250;28;20041;-81
2022/05/30 03:47:18;;;;;;;9.18;4.38;;;6.10;99.90;;;;;;4990791;28;20422;-81
2022/05/30 03:49:43;;;;;;;6.63;4.38;;;6.20;99.90;;;;;;4988295;28;20145;-82
2022/05/30 03:52:10;;;;;;;6.53;3.75;;;6.30;99.90;;;;;;5003197;28;20161;-81
2022/05/30 03:54:36;;;;;;;5.85;3.30;;;6.30;99.90;;;;;;5004018;28;20509;-81
2022/05/30 03:57:03;;;;;;;6.13;3.88;;;6.40;99.90;;;;;;4976434;28;20066;-81
2022/05/30 03:59:28;;;;;;;8.13;3.90;;;6.40;99.90;;;;;;4990115;28;20035;-81
2022/05/30 04:01:54;;;;;;;10.90;3.88;;;6.40;99.90;;;;;;4975116;28;20041;-81
2022/05/30 04:04:20;;;;;;;8.20;3.30;;;6.50;99.90;;;;;;4987062;28;20390;-81
2022/05/30 04:06:45;;;;;;;7.53;4.07;;;6.50;93.40;;;;;;4972031;28;20777;-81
2022/05/30 04:09:11;;;;;;;5.65;3.17;;;6.50;91.70;;;;;;4974130;28;20054;-81
2022/05/30 04:11:37;;;;;;;6.40;3.15;;;6.60;66.40;;;;;;4974326;28;20081;-81
2022/05/30 04:14:02;;;;;;;5.18;3.10;;;6.70;46.70;;;;;;5002426;28;20045;-81
2022/05/30 04:16:28;;;;;;;7.03;3.60;;;6.70;35.80;;;;;;5005560;28;20034;-81
2022/05/30 04:18:57;;;;;;;5.15;3.47;;;6.70;26.40;;;;;;4974345;28;20037;-81
2022/05/30 04:21:23;;;;;;;5.43;3.53;;;6.80;15.40;;;;;;4987269;28;20045;-81
2022/05/30 04:23:48;;;;;;;5.88;3.22;;;6.90;1.00;;;;;;4974267;28;20041;-81
2022/05/30 04:26:16;;;;;;;9.05;3.47;;;7.00;1.00;;;;;;4970419;28;20417;-81
2022/05/30 04:28:42;;;;;;;6.25;3.03;;;7.00;1.00;;;;;;4987375;28;20049;-81
2022/05/30 04:31:10;;;;;;;5.88;3.33;;;7.10;1.00;;;;;;4984993;28;20572;-81
2022/05/30 04:33:37;;;;;;;8.10;3.17;;;7.20;1.00;;;;;;4971438;28;20044;-81
2022/05/30 04:36:08;;;;;;;5.78;2.92;;;7.20;1.00;;;;;;4989984;28;20092;-81
2022/05/30 04:38:33;;;;;;;5.60;3.20;;;7.30;1.00;;;;;;4976011;28;20038;-81
2022/05/30 04:41:00;;;;;;;6.30;2.88;;;7.50;1.00;;;;;;4971929;28;20057;-81
2022/05/30 04:43:32;;;;;;;8.52;3.20;;;7.50;1.00;;;;;;4975456;28;20634;-81
2022/05/30 04:46:12;;;;;;;7.93;3.47;;;7.60;1.00;;;;;;4990368;28;20034;-80
2022/05/30 04:48:38;;;;;;;6.85;3.20;;;7.70;1.00;;;;;;5005180;28;20509;-81
2022/05/30 04:51:04;;;;;;;6.88;2.97;;;7.70;1.00;;;;;;4973504;28;20371;-81
2022/05/30 04:53:34;;;;;;;4.40;3.20;;;7.80;1.00;;;;;;4991206;28;20319;-81
2022/05/30 04:56:00;;;;;;;6.10;3.10;;;7.80;1.00;;;;;;4990824;28;20363;-81
2022/05/30 04:58:28;;;;;;;5.80;3.10;;;8.00;1.00;;;;;;4972651;28;20035;-81
2022/05/30 05:01:08;;;;;;;3.63;2.70;;;8.00;99.90;;;;;;4973521;28;20657;-80
2022/05/30 05:03:37;;;;;;;7.03;3.15;;;8.10;99.90;;;;;;4974787;28;20045;-81
2022/05/30 05:06:17;;;;;;;8.18;3.38;;;8.20;99.90;;;;;;4989299;28;20136;-80
2022/05/30 05:08:55;;;;;;;7.05;3.22;;;8.30;99.90;;;;;;5003330;28;20050;-81
2022/05/30 05:11:24;;;;;;;6.35;3.03;;;8.30;99.90;;;;;;5001155;28;20076;-81
2022/05/30 05:13:53;;;;;;;8.00;2.58;;;8.40;99.90;;;;;;4972888;28;20050;-81
2022/05/30 05:16:21;;;;;;;7.60;2.83;;;8.40;99.90;;;;;;4974933;28;20042;-81
2022/05/30 05:18:48;;;;;;;7.95;3.00;;;8.50;99.90;;;;;;4987776;28;20037;-81
2022/05/30 05:21:24;;;;;;;7.93;2.90;;;8.60;99.90;;;;;;4988638;28;20039;-81
2022/05/30 05:23:50;;;;;;;5.70;3.10;;;8.70;99.90;;;;;;4990362;28;20034;-81
2022/05/30 05:26:17;;;;;;;7.10;2.78;;;8.80;99.90;;;;;;4975291;28;20053;-81
2022/05/30 05:28:44;;;;;;;7.50;2.60;;;8.80;99.90;;;;;;4991179;28;20041;-81
2022/05/30 05:31:36;;;;;;;6.32;2.90;;;9.00;99.90;;;;;;4986187;28;20402;-80
2022/05/30 05:34:08;;;;;;;6.65;2.63;;;9.20;99.90;;;;;;4970689;28;20047;-81
2022/05/30 05:36:41;;;;;;;6.60;2.63;;;9.10;99.90;;;;;;4986939;28;20082;-81
2022/05/30 05:39:08;;;;;;;5.57;2.67;;;9.20;99.90;;;;;;5007361;28;20034;-80
2022/05/30 05:41:34;;;;;;;5.82;2.88;;;9.30;99.90;;;;;;4977059;28;20378;-81
2022/05/30 05:44:00;;;;;;;6.03;3.13;;;9.50;99.90;;;;;;4979953;28;20061;-80
2022/05/30 05:46:29;;;;;;;7.32;3.13;;;9.70;99.90;;;;;;5011046;28;20132;-81
2022/05/30 05:48:56;;;;;;;7.05;2.67;;;9.90;99.90;;;;;;5017327;28;20544;-80
2022/05/30 05:51:22;;;;;;;4.40;2.50;;;10.00;99.90;;;;;;4986682;28;20350;-80
2022/05/30 05:53:49;;;;;;;4.63;2.20;;;10.10;99.90;;;;;;4988038;28;20103;-81
2022/05/30 05:56:23;;;;;;;4.70;2.40;;;10.30;99.90;;;;;;5015513;28;20298;-81
2022/05/30 05:58:50;;;;;;;7.45;2.65;;;10.10;58.40;;;;;;4980183;28;20044;-80
2022/05/30 06:01:20;;;;;;;4.90;2.33;;;10.00;90.60;;;;;;5014837;28;20039;-81
2022/05/30 06:03:46;;;;;;;4.07;2.00;;;10.10;99.90;;;;;;4984680;28;20366;-80
2022/05/30 06:06:12;;;;;;;2.85;1.92;;;10.00;69.20;;;;;;4993081;28;20650;-80
2022/05/30 06:08:38;;;;;;;5.57;2.10;;;10.10;56.60;;;;;;4996842;28;20488;-80
2022/05/30 06:11:11;;;;;;;4.07;2.00;;;10.20;85.20;;;;;;5007961;28;20034;-81
2022/05/30 06:13:39;;;;;;;4.35;1.77;;;10.20;1.00;;;;;;5003114;28;20046;-81
2022/05/30 06:16:26;;;;;;;2.67;1.70;;;10.30;1.00;;;;;;5007835;28;20064;-81
2022/05/30 06:18:54;;;;;;;3.00;1.48;;;10.30;1.00;;;;;;4975875;28;20050;-81
2022/05/30 06:21:21;;;;;;;3.03;1.80;;;10.30;1.00;;;;;;4994151;28;20038;-81
2022/05/30 06:23:48;;;;;;;2.03;1.60;;;10.60;1.00;;;;;;5005989;28;20471;-80
2022/05/30 06:26:17;;;;;;;4.43;1.80;;;10.70;18.20;;;;;;4985290;28;20050;-81
2022/05/30 06:28:43;;;;;;;2.28;1.65;;;10.50;1.00;;;;;;4979168;28;20464;-81
2022/05/30 06:31:12;;;;;;;3.85;1.70;;;10.60;1.00;;;;;;4978207;28;20580;-80
2022/05/30 06:33:38;;;;;;;4.00;1.77;;;10.80;1.00;;;;;;4976470;28;20058;-81
2022/05/30 06:36:07;;;;;;;3.78;1.40;;;11.00;1.00;;;;;;4981351;28;20051;-80
2022/05/30 06:38:32;;;;;;;3.53;1.45;;;11.30;1.00;;;;;;5007326;28;20046;-81
2022/05/30 06:41:12;;;;;;;2.30;1.52;;;11.50;1.00;;;;;;5007983;28;20054;-81
2022/05/30 06:43:38;;;;;;;3.30;1.70;;;11.50;1.00;;;;;;4980697;28;20109;-81
2022/05/30 06:46:04;;;;;;;2.78;1.45;;;11.60;99.90;;;;;;4994124;28;20050;-81
2022/05/30 06:48:34;;;;;;;2.83;1.27;;;11.80;99.90;;;;;;5007635;28;20392;-80
2022/05/30 06:51:05;;;;;;;4.30;1.40;;;12.10;99.90;;;;;;4996304;28;20096;-81
2022/05/30 06:53:31;;;;;;;2.90;1.08;;;12.20;99.90;;;;;;4969776;28;20046;-81
2022/05/30 06:55:56;;;;;;;2.70;1.35;;;12.00;99.90;;;;;;4975161;28;20053;-80
2022/05/30 06:58:25;;;;;;;2.45;1.10;;;11.70;99.90;;;;;;4975641;28;20457;-80
2022/05/30 07:00:52;;;;;;;3.63;1.52;;;11.90;1.00;;;;;;4979139;28;20467;-81
2022/05/30 07:03:18;;;;;;;4.63;1.67;;;11.60;99.90;;;;;;5000052;28;20100;-80
2022/05/30 07:05:45;;;;;;;2.45;1.35;;;11.70;99.90;;;;;;4982100;28;20125;-80
2022/05/30 07:08:12;;;;;;;2.75;1.40;;;11.90;99.90;;;;;;5012352;28;20042;-81
2022/05/30 07:10:39;;;;;;;5.20;1.50;;;11.90;99.90;;;;;;4998228;28;20060;-80
2022/05/30 07:13:06;;;;;;;2.78;1.38;;;11.90;99.90;;;;;;4983057;28;20541;-81
2022/05/30 07:15:35;;;;;;;4.90;1.42;;;12.20;99.90;;;;;;4996273;28;20453;-81
2022/05/30 07:18:13;;;;;;;5.22;1.50;;;12.20;99.90;;;;;;5015198;28;20540;-80
2022/05/30 07:20:40;;;;;;;4.10;1.50;;;12.00;99.90;;;;;;5008715;28;20406;-81
2022/05/30 07:23:06;;;;;;;2.28;1.33;;;12.10;99.90;;;;;;4973364;28;20493;-81
2022/05/30 07:25:36;;;;;;;2.75;1.27;;;12.20;99.90;;;;;;4982250;28;20042;-81
2022/05/30 07:28:03;;;;;;;2.60;1.10;;;12.00;99.90;;;;;;4998212;28;20046;-80
2022/05/30 07:30:29;;;;;;;3.20;1.50;;;12.20;99.90;;;;;;4983528;28;20042;-81
2022/05/30 07:32:58;;;;;;;1.83;1.10;;;12.20;99.90;;;;;;4975833;28;20092;-81
2022/05/30 07:35:24;;;;;;;2.20;1.02;;;12.40;99.90;;;;;;4975930;28;20034;-81
2022/05/30 07:37:53;;;;;;;2.10;1.27;;;12.40;99.90;;;;;;4960788;28;20117;-81
2022/05/30 07:40:19;;;;;;;3.60;1.00;;;12.30;99.90;;;;;;5007492;28;20055;-81
2022/05/30 07:42:45;;;;;;;1.55;0.75;;;12.30;99.90;;;;;;5011257;28;20096;-81
2022/05/30 07:45:11;;;;;;;1.70;0.93;;;12.00;99.90;;;;;;4990564;28;20465;-81
2022/05/30 07:47:37;;;;;;;2.35;1.20;;;11.80;99.90;;;;;;4997443;28;20140;-81
2022/05/30 07:50:09;;;;;;;3.35;1.10;;;11.60;99.90;;;;;;4978496;28;20234;-81
2022/05/30 07:52:35;;;;;;;1.65;0.75;;;11.40;99.90;;;;;;4959339;28;20517;-81
2022/05/30 07:55:02;;;;;;;1.48;1.10;;;11.20;99.90;;;;;;4984454;28;20436;-82
2022/05/30 08:00:17;;;;;;;2.42;1.20;;;11.10;1.00;;;;;;4977586;28;20099;-82
2022/05/30 08:02:42;;;;;;;1.23;0.85;;;11.10;1.00;;;;;;4984757;28;20070;-82
2022/05/30 08:05:11;;;;;;;2.08;1.02;;;11.40;1.00;;;;;;4983967;28;20126;-81
2022/05/30 08:07:37;;;;;;;2.17;1.00;;;11.50;99.90;;;;;;4980312;28;20096;-81
2022/05/30 08:10:04;;;;;;;2.00;0.80;;;11.60;99.90;;;;;;4984589;28;20078;-81
2022/05/30 08:12:31;;;;;;;3.53;1.08;;;12.00;99.90;;;;;;4981929;28;20052;-81
2022/05/30 08:14:58;;;;;;;2.42;1.00;;;12.20;99.90;;;;;;4982808;28;20030;-81
2022/05/30 08:17:23;;;;;;;3.38;1.00;;;12.30;99.90;;;;;;4975463;28;20062;-81
2022/05/30 08:19:49;;;;;;;2.40;1.20;;;12.60;99.90;;;;;;4989496;28;20283;-81
2022/05/30 08:22:15;;;;;;;2.38;0.90;;;13.00;99.90;;;;;;4971657;28;20109;-81
2022/05/30 08:24:42;;;;;;;3.65;0.98;;;13.10;99.90;;;;;;5004040;28;20288;-81
2022/05/30 08:27:08;;;;;;;2.75;1.00;;;13.30;99.90;;;;;;5006178;28;20085;-81
2022/05/30 08:29:37;;;;;;;2.42;1.05;;;13.00;99.90;;;;;;4989944;28;20054;-81
2022/05/30 08:32:06;;;;;;;1.27;0.70;;;13.30;99.90;;;;;;5003008;28;20122;-81
2022/05/30 08:34:39;;;;;;;1.63;1.10;;;13.00;99.90;;;;;;4996983;28;20112;-81
2022/05/30 08:37:06;;;;;;;3.83;1.23;;;13.00;99.90;;;;;;5009715;28;20042;-81
2022/05/30 08:42:31;;;;;;;3.83;0.95;;;13.30;99.90;;;;;;4981344;28;20095;-81
2022/05/30 08:44:57;;;;;;;2.33;0.90;;;13.40;99.90;;;;;;4995189;28;20052;-81
2022/05/30 08:47:23;;;;;;;3.08;0.73;;;13.10;99.90;;;;;;4978369;28;20404;-81
2022/05/30 08:49:52;;;;;;;1.92;0.60;;;13.30;99.90;;;;;;5012934;28;20572;-81
2022/05/30 08:52:43;;;;;;;0.95;0.30;;;13.10;99.90;;;;;;4980022;28;20046;-81
2022/05/30 08:55:28;;;;;;;1.38;0.28;;;12.00;99.90;;;;;;4976315;28;20049;-80
2022/05/30 08:58:09;;;;;;;0.43;0.22;;;11.50;99.90;;;;;;4994549;28;20054;-81
2022/05/30 09:00:41;;;;;;;0.68;0.20;;;11.40;99.90;;;;;;5006512;28;20623;-81
2022/05/30 09:03:19;;;;;;;0.38;0.38;;;11.20;99.90;;;;;;4997807;28;20042;-81
2022/05/30 09:06:23;;;;;;;0.57;0.32;;;11.30;99.90;;;;;;4975410;28;20046;-80
2022/05/30 09:08:53;;;;;;;2.33;0.30;;;11.30;99.90;;;;;;4992981;28;20038;-81
2022/05/30 09:11:29;;;;;;;1.77;0.35;;;11.50;99.90;;;;;;4977000;28;20041;-81
2022/05/30 09:13:57;;;;;;;0.65;0.40;;;11.70;99.90;;;;;;4983306;28;20057;-81
2022/05/30 09:16:47;;;;;;;0.77;0.45;;;11.80;99.90;;;;;;4998208;28;20390;-81
2022/05/30 09:19:15;;;;;;;0.40;0.40;;;11.90;99.90;;;;;;4984017;28;20096;-81
2022/05/30 09:21:41;;;;;;;0.43;0.43;;;12.00;99.90;;;;;;5013072;28;20030;-80
2022/05/30 09:24:07;;;;;;;1.38;0.57;;;11.80;99.90;;;;;;4998960;28;20038;-81
2022/05/30 09:26:40;;;;;;;0.85;0.43;;;12.00;99.90;;;;;;4982189;28;20050;-81
2022/05/30 09:29:12;;;;;;;0.50;0.40;;;11.90;99.90;;;;;;4980619;28;20052;-81
2022/05/30 09:32:04;;;;;;;0.75;0.40;;;11.90;99.90;;;;;;4995972;28;20504;-81
2022/05/30 09:34:30;;;;;;;1.10;0.30;;;12.20;99.90;;;;;;4986687;28;20416;-81
2022/05/30 09:36:56;;;;;;;1.17;0.52;;;12.50;99.90;;;;;;4982342;28;20485;-81
2022/05/30 09:39:21;;;;;;;0.60;0.40;;;12.60;99.90;;;;;;4980532;28;20612;-82
2022/05/30 09:41:55;;;;;;;1.08;0.38;;;12.80;99.90;;;;;;4994849;28;20413;-81
2022/05/30 09:44:29;;;;;;;0.90;0.28;;;12.90;99.90;;;;;;5010677;28;20045;-81
2022/05/30 09:47:05;;;;;;;0.73;0.40;;;13.00;99.90;;;;;;5012113;28;20778;-81
2022/05/30 09:49:47;;;;;;;1.25;0.50;;;13.60;99.90;;;;;;5013682;28;20410;-81
2022/05/30 09:52:35;;;;;;;1.52;0.52;;;13.80;99.90;;;;;;5010671;28;20131;-81
2022/05/30 09:55:24;;;;;;;1.50;0.60;;;14.20;99.90;;;;;;4964732;28;20056;-81
2022/05/30 09:57:52;;;;;;;1.27;0.60;;;14.00;99.90;;;;;;4980732;28;20568;-81
2022/05/30 10:00:57;;;;;;;1.83;0.70;;;14.30;99.90;;;;;;4999024;28;20040;-81
2022/05/30 10:03:33;;;;;;;0.95;0.77;;;14.30;99.90;;;;;;4976751;28;20552;-81
2022/05/30 10:06:14;;;;;;;1.88;0.80;;;14.40;99.90;;;;;;5011023;28;20041;-81
2022/05/30 10:08:40;;;;;;;1.55;0.75;;;14.30;99.90;;;;;;4979487;28;20109;-81
2022/05/30 10:11:06;;;;;;;2.05;0.70;;;14.80;99.90;;;;;;4980049;28;20464;-81
2022/05/30 10:13:37;;;;;;;1.63;0.70;;;15.00;99.90;;;;;;4982130;28;20038;-81
2022/05/30 10:16:06;;;;;;;1.77;0.70;;;15.10;99.90;;;;;;4981810;28;20057;-81
2022/05/30 10:18:35;;;;;;;3.28;0.90;;;15.10;99.90;;;;;;4986594;28;20074;-81
2022/05/30 10:21:22;;;;;;;0.45;0.40;;;15.00;99.90;;;;;;4980817;28;20056;-81
2022/05/30 10:30:25;;;;;;;0.93;0.35;;;15.30;99.90;;;;;;4998043;28;20202;-81
2022/05/30 10:33:06;;;;;;;0.22;0.20;;;15.20;99.90;;;;;;4983028;28;20572;-81
2022/05/30 10:35:53;;;;;;;0.40;0.30;;;15.40;99.90;;;;;;4973862;28;20111;-81
2022/05/30 10:38:34;;;;;;;1.15;0.35;;;15.60;99.90;;;;;;4996774;28;20141;-81
2022/05/30 10:41:31;;;;;;;0.45;0.30;;;16.00;99.90;;;;;;4990126;28;20137;-81
2022/05/30 10:44:09;;;;;;;1.35;0.40;;;16.20;99.90;;;;;;4977799;28;20047;-81
2022/05/30 10:46:50;;;;;;;0.80;0.68;;;15.80;92.70;;;;;;4993535;28;20042;-81
2022/05/30 10:49:20;;;;;;;1.20;0.65;;;16.10;99.90;;;;;;5008185;28;20042;-81
2022/05/30 10:52:01;;;;;;;2.08;0.68;;;16.30;93.00;;;;;;5014683;28;20823;-81
2022/05/30 10:54:34;;;;;;;1.00;0.70;;;15.60;90.10;;;;;;4998717;28;20362;-79
2022/05/30 10:57:39;;;;;;;2.00;0.75;;;15.10;93.20;;;;;;5003890;28;20081;-79
2022/05/30 11:00:10;;;;;;;1.42;1.10;;;14.70;93.50;;;;;;4991122;28;20038;-81
2022/05/30 11:03:00;;;;;;;1.20;0.68;;;14.70;99.90;;;;;;5003728;28;20049;-81
2022/05/30 11:05:33;;;;;;;0.70;0.38;;;13.40;99.90;;;;;;4976381;28;20109;-81
2022/05/30 11:08:22;;;;;;;1.65;0.38;;;12.30;99.90;;;;;;4973573;28;20038;-82
2022/05/30 11:11:06;;;;;;;1.35;0.50;;;11.60;99.90;;;;;;4975342;28;20428;-81
2022/05/30 11:13:51;;;;;;;0.80;0.60;;;11.70;99.90;;;;;;5007621;28;20085;-81
2022/05/30 11:16:23;;;;;;;2.25;0.80;;;11.50;99.90;;;;;;5004010;28;20038;-81
2022/05/30 11:19:07;;;;;;;1.98;0.88;;;11.20;1.00;;;;;;5008037;28;20038;-81
2022/05/30 11:22:05;;;;;;;1.98;0.80;;;11.10;1.00;;;;;;5010276;28;20030;-82
2022/05/30 11:24:32;;;;;;;1.42;0.90;;;11.00;1.00;;;;;;4986271;28;20050;-82
2022/05/30 11:27:17;;;;;;;1.83;0.80;;;10.60;16.70;;;;;;4984112;28;20452;-82
2022/05/30 11:30:05;;;;;;;1.92;0.77;;;10.60;99.90;;;;;;5011536;28;20517;-82
2022/05/30 11:32:36;;;;;;;1.00;0.90;;;11.00;1.00;;;;;;4961390;28;20251;-82
2022/05/30 11:35:14;;;;;;;1.60;0.80;;;11.10;1.00;;;;;;4996906;28;20049;-82
2022/05/30 11:38:07;;;;;;;2.13;0.90;;;11.00;1.00;;;;;;4979572;28;20430;-83
2022/05/30 11:40:48;;;;;;;1.48;0.80;;;11.30;1.00;;;;;;4980339;28;20359;-84
2022/05/30 11:43:37;;;;;;;2.60;0.77;;;11.30;1.00;;;;;;4985670;28;20643;-83
2022/05/30 11:46:31;;;;;;;1.38;0.77;;;11.90;25.50;;;;;;4985182;28;20287;-82
2022/05/30 11:49:28;;;;;;;0.88;0.70;;;12.10;1.00;;;;;;4980737;28;20266;-82
2022/05/30 11:52:23;;;;;;;0.70;0.50;;;12.70;1.00;;;;;;4992889;28;20400;-82
2022/05/30 11:55:21;;;;;;;2.58;0.70;;;12.60;99.90;;;;;;4968940;28;20058;-82
2022/05/30 11:57:48;;;;;;;1.85;0.68;;;12.20;99.90;;;;;;4992757;28;20077;-82
2022/05/30 12:00:33;;;;;;;2.22;0.60;;;12.70;99.90;;;;;;5004917;28;20120;-81
2022/05/30 12:03:14;;;;;;;0.95;0.60;;;13.00;99.90;;;;;;4981440;28;20171;-80
2022/05/30 12:05:52;;;;;;;1.45;0.50;;;13.00;1.00;;;;;;4990584;28;20046;-81
2022/05/30 12:08:23;;;;;;;2.05;0.80;;;13.50;1.00;;;;;;5010963;28;20033;-81
2022/05/30 12:11:10;;;;;;;1.80;0.70;;;13.50;99.90;;;;;;4990805;28;20261;-81
2022/05/30 12:13:59;;;;;;;2.42;0.80;;;13.70;99.90;;;;;;4980638;28;20278;-81
2022/05/30 12:16:47;;;;;;;0.90;0.70;;;13.80;99.90;;;;;;4977176;28;20050;-81
2022/05/30 12:24:50;;;;;;;0.95;0.68;;;14.30;99.90;;;;;;5005883;28;20049;-81
2022/05/30 12:27:28;;;;;;;1.13;0.50;;;14.40;99.90;;;;;;4979137;28;20030;-81
2022/05/30 12:29:55;;;;;;;0.65;0.60;;;14.60;99.90;;;;;;4990922;28;20038;-81
2022/05/30 12:32:21;;;;;;;1.23;0.63;;;14.60;99.90;;;;;;5005201;28;20057;-79
2022/05/30 12:35:11;;;;;;;0.88;0.52;;;14.80;99.90;;;;;;5005777;28;20034;-81
2022/05/30 12:37:45;;;;;;;1.38;0.52;;;15.10;99.90;;;;;;5004440;28;20406;-80
2022/05/30 12:40:27;;;;;;;1.33;0.50;;;15.00;99.90;;;;;;5003927;28;20042;-79
2022/05/30 12:43:27;;;;;;;1.40;0.70;;;15.30;99.90;;;;;;5002293;28;20231;-81
2022/05/30 12:45:56;;;;;;;2.38;0.70;;;15.20;99.90;;;;;;4981932;28;20106;-81
2022/05/30 12:48:55;;;;;;;1.00;0.70;;;15.20;99.90;;;;;;4980781;28;20330;-81
2022/05/30 12:51:37;;;;;;;1.73;0.80;;;14.80;99.90;;;;;;5013265;28;20061;-81
2022/05/30 12:54:03;;;;;;;3.13;0.90;;;14.90;99.90;;;;;;4976098;28;20183;-81
2022/05/30 12:56:38;;;;;;;1.98;0.90;;;15.00;99.90;;;;;;4999311;28;20270;-81
2022/05/30 12:59:03;;;;;;;3.00;0.95;;;14.50;99.90;;;;;;4982536;28;20034;-81
2022/05/30 13:01:44;;;;;;;3.72;1.38;;;14.40;99.90;;;;;;5007358;28;20042;-81
2022/05/30 13:04:16;;;;;;;1.50;0.80;;;14.50;99.90;;;;;;5000947;28;20100;-81
2022/05/30 13:07:15;;;;;;;2.20;0.82;;;14.40;99.90;;;;;;4986025;28;20563;-81
2022/05/30 13:09:42;;;;;;;1.20;0.98;;;14.80;99.90;;;;;;5004374;28;20038;-79
2022/05/30 13:12:10;;;;;;;0.95;0.63;;;14.70;99.90;;;;;;4987252;28;20401;-81
2022/05/30 13:15:01;;;;;;;2.88;1.00;;;14.90;99.90;;;;;;5014863;28;20105;-81
2022/05/30 13:17:56;;;;;;;1.90;1.10;;;14.10;99.90;;;;;;5016175;28;20134;-81
2022/05/30 13:20:43;;;;;;;3.70;1.60;;;14.00;99.90;;;;;;5005165;28;20507;-81
2022/05/30 13:23:09;;;;;;;2.22;1.08;;;13.90;99.90;;;;;;5016496;28;20042;-81
2022/05/30 13:25:47;;;;;;;4.53;1.08;;;14.50;99.90;;;;;;4986992;28;20056;-81
2022/05/30 13:28:27;;;;;;;3.15;0.88;;;14.80;99.90;;;;;;4985779;28;20068;-80
2022/05/30 13:30:55;;;;;;;2.55;1.00;;;14.80;99.90;;;;;;5014706;28;20320;-81
2022/05/30 13:33:32;;;;;;;1.70;0.93;;;14.40;99.90;;;;;;4999087;28;20038;-81
2022/05/30 13:36:00;;;;;;;1.23;0.80;;;14.60;99.90;;;;;;4983598;28;20185;-81
2022/05/30 13:38:48;;;;;;;1.30;0.80;;;14.50;99.90;;;;;;5001872;28;20415;-81
2022/05/30 13:41:35;;;;;;;1.98;0.90;;;14.40;99.90;;;;;;5012072;28;20773;-81
2022/05/30 13:44:01;;;;;;;2.97;0.90;;;14.40;99.90;;;;;;4982689;28;20560;-81
2022/05/30 13:46:32;;;;;;;1.83;0.80;;;13.80;99.90;;;;;;4980391;28;20050;-81